createdAt,value
2022-10-15T00:00:43.917Z,13.30
2022-10-15T00:03:10.636Z,13.30
2022-10-15T00:05:40.695Z,13.30
2022-10-15T00:08:08.582Z,13.30
2022-10-15T00:10:36.647Z,13.30
2022-10-15T00:13:04.715Z,13.20
2022-10-15T00:15:31.683Z,13.20
2022-10-15T00:17:58.583Z,13.20
2022-10-15T00:20:25.319Z,13.20
2022-10-15T00:22:51.915Z,13.20
2022-10-15T00:25:18.553Z,13.20
2022-10-15T00:27:45.172Z,13.20
2022-10-15T00:30:12.290Z,13.20
2022-10-15T00:32:38.861Z,13.10
2022-10-15T00:35:05.950Z,13.20
2022-10-15T00:37:32.540Z,13.20
2022-10-15T00:39:59.192Z,13.20
2022-10-15T00:42:26.087Z,13.20
2022-10-15T00:44:58.978Z,13.20
2022-10-15T00:47:35.591Z,13.20
2022-10-15T00:50:12.919Z,13.20
2022-10-15T00:52:48.771Z,13.20
2022-10-15T00:55:27.021Z,13.20
2022-10-15T00:57:55.323Z,13.20
2022-10-15T01:00:22.010Z,13.20
2022-10-15T01:02:48.595Z,13.20
2022-10-15T01:05:17.180Z,13.20
2022-10-15T01:07:44.004Z,13.30
2022-10-15T01:10:11.663Z,13.20
2022-10-15T01:13:12.251Z,13.30
2022-10-15T01:16:08.438Z,13.20
2022-10-15T01:19:01.373Z,13.20
2022-10-15T01:21:27.874Z,13.30
2022-10-15T01:24:19.100Z,13.30
2022-10-15T01:27:04.254Z,13.20
2022-10-15T01:30:11.185Z,13.20
2022-10-15T01:32:48.883Z,13.30
2022-10-15T01:35:38.748Z,13.20
2022-10-15T01:38:23.169Z,13.30
2022-10-15T01:41:07.221Z,13.20
2022-10-15T01:43:44.383Z,13.30
2022-10-15T01:46:20.220Z,13.30
2022-10-15T01:48:48.420Z,13.30
2022-10-15T01:51:17.377Z,13.30
2022-10-15T01:53:45.501Z,13.30
2022-10-15T01:56:17.756Z,13.30
2022-10-15T01:58:46.428Z,13.30
2022-10-15T02:01:13.104Z,13.30
2022-10-15T02:03:51.289Z,13.30
2022-10-15T02:06:39.276Z,13.30
2022-10-15T02:09:14.160Z,13.30
2022-10-15T02:12:06.655Z,13.30
2022-10-15T02:14:58.566Z,13.30
2022-10-15T02:17:35.168Z,13.30
2022-10-15T02:20:19.773Z,13.40
2022-10-15T02:23:00.479Z,13.40
2022-10-15T02:25:28.334Z,13.40
2022-10-15T02:27:57.652Z,13.40
2022-10-15T02:30:26.315Z,13.40
2022-10-15T02:32:56.915Z,13.40
2022-10-15T02:35:24.561Z,13.50
2022-10-15T02:37:54.363Z,13.50
2022-10-15T02:40:25.679Z,13.40
2022-10-15T02:42:52.496Z,13.50
2022-10-15T02:45:19.951Z,13.50
2022-10-15T02:47:46.518Z,13.50
2022-10-15T02:50:13.185Z,13.50
2022-10-15T02:52:39.755Z,13.60
2022-10-15T02:55:06.904Z,13.60
2022-10-15T02:57:33.528Z,13.60
2022-10-15T03:00:00.107Z,13.60
2022-10-15T03:02:26.685Z,13.60
2022-10-15T03:04:53.267Z,13.60
2022-10-15T03:07:19.819Z,13.60
2022-10-15T03:09:46.403Z,13.70
2022-10-15T03:12:12.968Z,13.70
2022-10-15T03:14:39.545Z,13.70
2022-10-15T03:17:06.208Z,13.70
2022-10-15T03:19:32.782Z,13.70
2022-10-15T03:21:59.371Z,13.70
2022-10-15T03:24:25.975Z,13.70
2022-10-15T03:26:52.546Z,13.70
2022-10-15T03:29:19.105Z,13.70
2022-10-15T03:31:45.691Z,13.70
2022-10-15T03:34:12.267Z,13.70
2022-10-15T03:36:38.838Z,13.70
2022-10-15T03:39:05.414Z,13.80
2022-10-15T03:41:32.018Z,13.80
2022-10-15T03:44:03.193Z,13.80
2022-10-15T03:46:29.858Z,13.80
2022-10-15T03:48:56.575Z,13.80
2022-10-15T03:51:25.526Z,13.80
2022-10-15T03:53:54.523Z,13.80
2022-10-15T03:56:21.316Z,13.80
2022-10-15T03:58:47.913Z,13.90
2022-10-15T04:01:17.130Z,13.90
2022-10-15T04:03:43.823Z,13.90
2022-10-15T04:06:10.490Z,13.90
2022-10-15T04:08:37.041Z,13.90
2022-10-15T04:11:03.613Z,13.90
2022-10-15T04:13:30.180Z,13.90
2022-10-15T04:15:56.763Z,13.90
2022-10-15T04:18:23.324Z,14.00
2022-10-15T04:20:49.918Z,14.00
2022-10-15T04:23:17.523Z,14.00
2022-10-15T04:25:44.120Z,14.00
2022-10-15T04:28:10.678Z,14.00
2022-10-15T04:30:37.247Z,14.00
2022-10-15T04:33:03.913Z,14.00
2022-10-15T04:35:30.463Z,14.00
2022-10-15T04:38:00.437Z,14.10
2022-10-15T04:40:27.411Z,14.10
2022-10-15T04:42:54.034Z,14.10
2022-10-15T04:45:20.671Z,14.10
2022-10-15T04:47:47.253Z,14.20
2022-10-15T04:50:13.829Z,14.10
2022-10-15T04:52:40.389Z,14.20
2022-10-15T04:55:07.288Z,14.20
2022-10-15T04:57:33.864Z,14.20
2022-10-15T05:00:00.435Z,14.20
2022-10-15T05:02:27.150Z,14.20
2022-10-15T05:04:53.835Z,14.20
2022-10-15T05:07:20.629Z,14.20
2022-10-15T05:09:47.393Z,14.20
2022-10-15T05:12:13.992Z,14.20
2022-10-15T05:14:40.554Z,14.20
2022-10-15T05:17:07.129Z,14.20
2022-10-15T05:19:33.693Z,14.30
2022-10-15T05:22:00.254Z,14.30
2022-10-15T05:24:26.814Z,14.30
2022-10-15T05:26:53.443Z,14.30
2022-10-15T05:29:20.093Z,14.30
2022-10-15T05:31:49.780Z,14.30
2022-10-15T05:34:16.356Z,14.30
2022-10-15T05:36:42.918Z,14.30
2022-10-15T05:39:09.520Z,14.30
2022-10-15T05:41:36.426Z,14.40
2022-10-15T05:44:03.202Z,14.40
2022-10-15T05:46:29.759Z,14.30
2022-10-15T05:48:57.941Z,14.30
2022-10-15T05:51:26.063Z,14.30
2022-10-15T05:53:53.720Z,14.30
2022-10-15T05:56:21.761Z,14.30
2022-10-15T05:58:48.663Z,14.30
2022-10-15T06:01:15.891Z,14.30
2022-10-15T06:03:43.240Z,14.30
2022-10-15T06:06:24.579Z,14.30
2022-10-15T06:08:52.130Z,14.30
2022-10-15T06:11:19.409Z,14.30
2022-10-15T06:13:46.633Z,14.30
2022-10-15T06:16:16.673Z,14.30
2022-10-15T06:18:46.050Z,14.30
2022-10-15T06:21:13.267Z,14.30
2022-10-15T06:23:39.843Z,14.40
2022-10-15T06:26:09.144Z,14.30
2022-10-15T06:28:36.937Z,14.40
2022-10-15T06:31:04.196Z,14.40
2022-10-15T06:33:31.411Z,14.40
2022-10-15T06:36:07.344Z,14.40
2022-10-15T06:38:35.007Z,14.40
2022-10-15T06:41:05.444Z,14.40
2022-10-15T06:43:34.785Z,14.40
2022-10-15T06:46:02.771Z,14.40
2022-10-15T06:48:29.459Z,14.40
2022-10-15T06:50:58.976Z,14.40
2022-10-15T06:53:25.616Z,14.40
2022-10-15T06:55:52.212Z,14.50
2022-10-15T06:58:18.787Z,14.50
2022-10-15T07:00:45.346Z,14.50
2022-10-15T07:03:11.920Z,14.60
2022-10-15T07:05:38.493Z,14.60
2022-10-15T07:08:05.219Z,14.60
2022-10-15T07:10:31.850Z,14.60
2022-10-15T07:13:01.619Z,14.60
2022-10-15T07:15:29.280Z,14.60
2022-10-15T07:17:56.826Z,14.70
2022-10-15T07:20:24.560Z,14.70
2022-10-15T07:22:55.671Z,14.70
2022-10-15T07:25:22.260Z,14.70
2022-10-15T07:27:48.848Z,14.70
2022-10-15T07:30:15.552Z,14.70
2022-10-15T07:32:44.482Z,14.80
2022-10-15T07:35:13.558Z,14.70
2022-10-15T07:37:40.649Z,14.70
2022-10-15T07:40:07.743Z,14.70
2022-10-15T07:42:34.566Z,14.80
2022-10-15T07:45:01.175Z,14.80
2022-10-15T07:47:27.753Z,14.80
2022-10-15T07:49:54.333Z,14.80
2022-10-15T07:52:21.101Z,14.80
2022-10-15T07:54:47.849Z,14.90
2022-10-15T07:57:14.452Z,14.90
2022-10-15T07:59:41.214Z,14.80
2022-10-15T08:02:15.470Z,14.90
2022-10-15T08:04:42.386Z,14.90
2022-10-15T08:07:10.312Z,14.90
2022-10-15T08:09:37.437Z,14.90
2022-10-15T08:12:04.524Z,14.90
2022-10-15T08:14:31.198Z,14.90
2022-10-15T08:16:57.797Z,14.90
2022-10-15T08:19:24.440Z,15.00
2022-10-15T08:21:51.059Z,14.90
2022-10-15T08:24:17.762Z,15.00
2022-10-15T08:26:44.346Z,15.00
2022-10-15T08:29:11.192Z,15.10
2022-10-15T08:31:39.814Z,15.10
2022-10-15T08:34:06.761Z,15.10
2022-10-15T08:36:33.792Z,15.10
2022-10-15T08:39:00.374Z,15.10
2022-10-15T08:41:29.761Z,15.10
2022-10-15T08:43:56.791Z,15.10
2022-10-15T08:46:35.422Z,15.10
2022-10-15T08:49:03.182Z,15.20
2022-10-15T08:51:44.695Z,15.10
2022-10-15T08:54:16.437Z,15.20
2022-10-15T08:56:50.763Z,15.20
2022-10-15T08:59:32.793Z,15.20
2022-10-15T09:02:04.975Z,15.20
2022-10-15T09:04:46.781Z,15.10
2022-10-15T09:07:29.274Z,15.10
2022-10-15T09:10:17.628Z,15.10
2022-10-15T09:12:53.180Z,15.10
2022-10-15T09:15:23.975Z,15.10
2022-10-15T09:17:55.773Z,15.10
2022-10-15T09:20:31.238Z,15.10
2022-10-15T09:22:58.067Z,15.20
2022-10-15T09:25:31.293Z,15.30
2022-10-15T09:28:07.815Z,15.30
2022-10-15T09:30:54.259Z,15.30
2022-10-15T09:33:26.605Z,15.30
2022-10-15T09:35:56.676Z,15.40
2022-10-15T09:38:35.064Z,15.30
2022-10-15T09:41:42.522Z,15.50
2022-10-15T09:44:12.811Z,15.50
2022-10-15T09:46:47.584Z,15.60
2022-10-15T09:49:24.546Z,15.60
2022-10-15T09:52:07.199Z,15.70
2022-10-15T09:55:09.092Z,15.90
2022-10-15T09:57:37.604Z,16.10
2022-10-15T10:00:11.221Z,16.40
2022-10-15T10:02:37.870Z,16.50
2022-10-15T10:05:27.449Z,16.60
2022-10-15T10:08:16.843Z,16.60
2022-10-15T10:10:46.058Z,16.70
2022-10-15T10:13:25.440Z,16.80
2022-10-15T10:15:58.306Z,16.90
2022-10-15T10:18:26.143Z,17.10
2022-10-15T10:20:54.189Z,17.30
2022-10-15T10:23:24.239Z,17.40
2022-10-15T10:25:51.083Z,17.50
2022-10-15T10:28:33.527Z,17.60
2022-10-15T10:31:10.464Z,17.60
2022-10-15T10:33:41.759Z,17.80
2022-10-15T10:36:42.028Z,18.00
2022-10-15T10:39:10.661Z,18.10
2022-10-15T10:41:51.319Z,18.10
2022-10-15T10:44:35.898Z,18.20
2022-10-15T10:47:08.482Z,18.10
2022-10-15T10:49:41.155Z,18.20
2022-10-15T10:52:20.660Z,18.50
2022-10-15T10:54:51.524Z,18.70
2022-10-15T10:57:27.400Z,19.10
2022-10-15T10:59:55.680Z,19.20
2022-10-15T11:02:22.382Z,19.10
2022-10-15T11:04:49.093Z,18.90
2022-10-15T11:07:24.276Z,18.90
2022-10-15T11:09:57.170Z,18.90
2022-10-15T11:12:43.963Z,19.00
2022-10-15T11:15:35.110Z,19.20
2022-10-15T11:18:27.729Z,19.30
2022-10-15T11:21:10.855Z,19.50
2022-10-15T11:23:42.962Z,19.70
2022-10-15T11:26:24.674Z,19.70
2022-10-15T11:29:04.783Z,19.50
2022-10-15T11:32:14.664Z,19.30
2022-10-15T11:34:49.136Z,19.10
2022-10-15T11:37:33.706Z,19.10
2022-10-15T11:40:03.219Z,19.10
2022-10-15T11:42:32.555Z,19.10
2022-10-15T11:45:36.916Z,19.10
2022-10-15T11:48:11.396Z,19.10
2022-10-15T11:50:58.882Z,19.20
2022-10-15T11:53:51.967Z,19.40
2022-10-15T11:56:36.450Z,19.60
2022-10-15T11:59:40.002Z,19.90
2022-10-15T12:02:18.511Z,20.30
2022-10-15T12:04:56.767Z,20.50
2022-10-15T12:07:28.102Z,20.60
2022-10-15T12:10:00.172Z,20.60
2022-10-15T12:13:04.470Z,20.50
2022-10-15T12:15:45.140Z,20.30
2022-10-15T12:18:26.781Z,20.00
2022-10-15T12:20:53.543Z,19.90
2022-10-15T12:23:39.029Z,20.00
2022-10-15T12:26:24.170Z,20.40
2022-10-15T12:28:53.114Z,20.50
2022-10-15T12:31:20.772Z,20.60
2022-10-15T12:33:58.094Z,20.60
2022-10-15T12:36:26.683Z,20.70
2022-10-15T12:39:12.806Z,20.60
2022-10-15T12:41:49.642Z,20.50
2022-10-15T12:44:32.111Z,20.50
2022-10-15T12:46:59.799Z,20.60
2022-10-15T12:49:26.423Z,20.70
2022-10-15T12:51:56.263Z,20.70
2022-10-15T12:54:43.331Z,20.80
2022-10-15T12:57:45.105Z,20.90
2022-10-15T13:00:31.076Z,20.80
2022-10-15T13:03:09.570Z,20.90
2022-10-15T13:05:36.838Z,20.70
2022-10-15T13:08:12.162Z,20.70
2022-10-15T13:10:45.553Z,20.60
2022-10-15T13:13:16.914Z,20.60
2022-10-15T13:15:54.497Z,20.50
2022-10-15T13:18:24.598Z,20.50
2022-10-15T13:20:52.610Z,20.70
2022-10-15T13:23:30.235Z,21.00
2022-10-15T13:26:20.456Z,21.00
2022-10-15T13:28:49.329Z,21.00
2022-10-15T13:31:23.547Z,20.90
2022-10-15T13:34:12.998Z,20.80
2022-10-15T13:36:40.121Z,20.60
2022-10-15T13:39:20.152Z,20.40
2022-10-15T13:41:46.867Z,20.10
2022-10-15T13:44:21.792Z,19.90
2022-10-15T13:46:48.667Z,19.70
2022-10-15T13:49:15.327Z,19.60
2022-10-15T13:51:48.075Z,19.50
2022-10-15T13:54:19.908Z,19.40
2022-10-15T13:57:02.711Z,19.30
2022-10-15T13:59:31.363Z,19.30
2022-10-15T14:02:02.628Z,19.30
2022-10-15T14:04:30.923Z,19.30
2022-10-15T14:07:03.989Z,19.20
2022-10-15T14:09:34.722Z,19.20
2022-10-15T14:12:04.349Z,19.10
2022-10-15T14:14:39.594Z,19.10
2022-10-15T14:17:09.967Z,19.10
2022-10-15T14:19:38.899Z,19.10
2022-10-15T14:22:06.223Z,19.10
2022-10-15T14:24:34.402Z,19.10
2022-10-15T14:27:04.090Z,19.20
2022-10-15T14:29:48.207Z,19.10
2022-10-15T14:32:45.812Z,19.00
2022-10-15T14:35:32.670Z,19.00
2022-10-15T14:38:02.844Z,19.10
2022-10-15T14:40:30.594Z,19.20
2022-10-15T14:43:17.509Z,19.10
2022-10-15T14:45:53.425Z,19.00
2022-10-15T14:48:26.994Z,18.90
2022-10-15T14:50:58.862Z,18.80
2022-10-15T14:53:28.674Z,18.70
2022-10-15T14:56:01.778Z,18.60
2022-10-15T14:58:29.829Z,18.50
2022-10-15T15:00:58.859Z,18.50
2022-10-15T15:03:39.534Z,18.30
2022-10-15T15:06:06.200Z,18.30
2022-10-15T15:08:32.840Z,18.30
2022-10-15T15:11:02.019Z,18.20
2022-10-15T15:13:31.730Z,18.20
2022-10-15T15:15:58.725Z,18.20
2022-10-15T15:18:25.308Z,18.20
2022-10-15T15:20:52.390Z,18.20
2022-10-15T15:23:25.471Z,18.10
2022-10-15T15:25:52.479Z,18.10
2022-10-15T15:28:21.553Z,18.10
2022-10-15T15:31:00.395Z,18.00
2022-10-15T15:33:27.716Z,18.00
2022-10-15T15:36:00.660Z,17.90
2022-10-15T15:38:28.361Z,17.90
2022-10-15T15:40:59.880Z,17.80
2022-10-15T15:43:26.481Z,17.80
2022-10-15T15:45:53.075Z,17.80
2022-10-15T15:48:19.728Z,17.70
2022-10-15T15:50:46.936Z,17.70
2022-10-15T15:53:13.525Z,17.70
2022-10-15T15:55:40.109Z,17.60
2022-10-15T15:58:06.722Z,17.60
2022-10-15T16:00:33.362Z,17.60
2022-10-15T16:02:59.950Z,17.50
2022-10-15T16:05:26.667Z,17.40
2022-10-15T16:07:53.318Z,17.50
2022-10-15T16:10:20.000Z,17.40
2022-10-15T16:12:46.658Z,17.30
2022-10-15T16:15:14.813Z,17.40
2022-10-15T16:17:42.790Z,17.30
2022-10-15T16:20:10.342Z,17.40
2022-10-15T16:22:36.928Z,17.30
2022-10-15T16:25:03.662Z,17.30
2022-10-15T16:27:30.280Z,17.30
2022-10-15T16:29:56.848Z,17.20
2022-10-15T16:32:23.412Z,17.20
2022-10-15T16:34:55.529Z,17.10
2022-10-15T16:37:22.343Z,17.10
2022-10-15T16:39:49.061Z,17.10
2022-10-15T16:42:15.635Z,17.10
2022-10-15T16:44:42.283Z,17.10
2022-10-15T16:47:08.885Z,17.10
2022-10-15T16:49:35.455Z,17.10
2022-10-15T16:52:02.035Z,17.00
2022-10-15T16:54:28.621Z,17.00
2022-10-15T16:56:55.258Z,17.00
2022-10-15T16:59:22.130Z,17.00
2022-10-15T17:01:48.750Z,16.90
2022-10-15T17:04:15.402Z,16.90
2022-10-15T17:06:42.002Z,16.90
2022-10-15T17:09:08.740Z,16.80
2022-10-15T17:11:38.171Z,16.80
2022-10-15T17:14:07.743Z,16.80
2022-10-15T17:16:40.435Z,16.70
2022-10-15T17:19:08.554Z,16.70
2022-10-15T17:21:35.989Z,16.60
2022-10-15T17:24:05.010Z,16.60
2022-10-15T17:26:35.402Z,16.60
2022-10-15T17:29:03.564Z,16.60
2022-10-15T17:31:31.518Z,16.50
2022-10-15T17:34:03.857Z,16.50
2022-10-15T17:36:32.491Z,16.50
2022-10-15T17:38:59.754Z,16.50
2022-10-15T17:41:28.912Z,16.50
2022-10-15T17:43:56.121Z,16.50
2022-10-15T17:46:25.870Z,16.50
2022-10-15T17:48:56.149Z,16.50
2022-10-15T17:51:25.730Z,16.50
2022-10-15T17:53:53.321Z,16.40
2022-10-15T17:56:23.227Z,16.40
2022-10-15T17:58:49.981Z,16.40
2022-10-15T18:04:24.410Z,16.30
2022-10-15T18:06:51.038Z,16.20
2022-10-15T18:09:17.791Z,16.30
2022-10-15T18:11:44.419Z,16.30
2022-10-15T18:14:11.122Z,16.30
2022-10-15T18:16:37.789Z,16.40
2022-10-15T18:19:04.392Z,16.30
2022-10-15T18:21:31.070Z,16.30
2022-10-15T18:23:59.765Z,16.30
2022-10-15T18:26:26.385Z,16.30
2022-10-15T18:28:54.207Z,16.30
2022-10-15T18:31:22.030Z,16.30
2022-10-15T18:33:51.580Z,16.30
2022-10-15T18:36:27.575Z,16.20
2022-10-15T18:38:55.619Z,16.20
2022-10-15T18:41:31.070Z,16.10
2022-10-15T18:44:03.196Z,16.10
2022-10-15T18:46:31.307Z,16.00
2022-10-15T18:48:58.429Z,16.00
2022-10-15T18:51:25.539Z,16.00
2022-10-15T18:53:52.410Z,15.90
2022-10-15T18:56:19.363Z,15.80
2022-10-15T18:58:46.052Z,15.80
2022-10-15T19:01:33.458Z,15.80
2022-10-15T19:04:02.494Z,15.70
2022-10-15T19:06:33.036Z,15.70
2022-10-15T19:09:01.691Z,15.70
2022-10-15T19:11:28.406Z,15.70
2022-10-15T19:13:57.546Z,15.60
2022-10-15T19:16:24.185Z,15.60
2022-10-15T19:18:50.834Z,15.60
2022-10-15T19:21:17.478Z,15.60
2022-10-15T19:23:44.141Z,15.60
2022-10-15T19:26:12.744Z,15.60
2022-10-15T19:28:39.841Z,15.60
2022-10-15T19:31:08.867Z,15.60
2022-10-15T19:33:36.303Z,15.60
2022-10-15T19:36:03.099Z,15.60
2022-10-15T19:38:29.742Z,15.60
2022-10-15T19:40:56.732Z,15.60
2022-10-15T19:43:23.730Z,15.60
2022-10-15T19:45:50.601Z,15.60
2022-10-15T19:48:19.193Z,15.60
2022-10-15T19:50:47.177Z,15.60
2022-10-15T19:53:15.892Z,15.70
2022-10-15T19:55:43.218Z,15.70
2022-10-15T19:58:10.289Z,15.70
2022-10-15T20:00:36.951Z,15.70
2022-10-15T20:03:03.767Z,15.70
2022-10-15T20:05:30.437Z,15.70
2022-10-15T20:07:57.006Z,15.70
2022-10-15T20:10:25.905Z,15.70
2022-10-15T20:12:53.543Z,15.70
2022-10-15T20:15:20.679Z,15.80
2022-10-15T20:17:47.523Z,15.70
2022-10-15T20:20:14.117Z,15.80
2022-10-15T20:22:40.833Z,15.80
2022-10-15T20:25:07.810Z,15.80
2022-10-15T20:27:34.423Z,15.80
2022-10-15T20:30:01.131Z,15.80
2022-10-15T20:32:34.668Z,15.80
2022-10-15T20:35:03.601Z,15.80
2022-10-15T20:37:30.450Z,15.80
2022-10-15T20:42:28.785Z,15.80
2022-10-15T20:44:55.596Z,15.80
2022-10-15T20:47:23.336Z,15.80
2022-10-15T20:49:52.179Z,15.90
2022-10-15T20:52:19.041Z,15.90
2022-10-15T20:54:45.674Z,15.90
2022-10-15T20:57:12.605Z,15.90
2022-10-15T20:59:39.202Z,15.90
2022-10-15T21:02:05.870Z,15.80
2022-10-15T21:04:32.476Z,15.80
2022-10-15T21:06:59.169Z,15.80
2022-10-15T21:09:25.740Z,15.80
2022-10-15T21:11:52.341Z,15.70
2022-10-15T21:14:18.984Z,15.70
2022-10-15T21:16:45.582Z,15.70
2022-10-15T21:19:12.173Z,15.60
2022-10-15T21:21:38.769Z,15.50
2022-10-15T21:24:05.533Z,15.50
2022-10-15T21:26:32.362Z,15.40
2022-10-15T21:29:03.018Z,15.30
2022-10-15T21:31:29.663Z,15.30
2022-10-15T21:33:56.542Z,15.20
2022-10-15T21:36:24.500Z,15.10
2022-10-15T21:39:01.234Z,15.10
2022-10-15T21:41:29.530Z,15.10
2022-10-15T21:43:57.051Z,15.00
2022-10-15T21:46:24.433Z,15.00
2022-10-15T21:48:52.727Z,14.90
2022-10-15T21:51:22.439Z,14.90
2022-10-15T21:53:49.470Z,14.90
2022-10-15T21:56:16.755Z,14.80
2022-10-15T21:58:44.231Z,14.70
2022-10-15T22:01:19.155Z,14.70
2022-10-15T22:03:47.591Z,14.70
2022-10-15T22:06:15.175Z,14.70
2022-10-15T22:08:42.733Z,14.60
2022-10-15T22:11:17.437Z,14.60
2022-10-15T22:13:46.464Z,14.60
2022-10-15T22:16:14.090Z,14.60
2022-10-15T22:18:41.137Z,14.60
2022-10-15T22:21:27.850Z,14.60
2022-10-15T22:24:06.248Z,14.50
2022-10-15T22:26:41.847Z,14.50
2022-10-15T22:29:15.794Z,14.40
2022-10-15T22:31:42.382Z,14.40
2022-10-15T22:34:08.972Z,14.40
2022-10-15T22:36:36.435Z,14.40
2022-10-15T22:39:05.898Z,14.40
2022-10-15T22:41:38.266Z,14.30
2022-10-15T22:44:05.341Z,14.20
2022-10-15T22:46:37.024Z,14.20
2022-10-15T22:49:04.911Z,14.20
2022-10-15T22:51:31.842Z,14.20
2022-10-15T22:54:00.042Z,14.10
2022-10-15T22:56:27.674Z,14.00
2022-10-15T22:58:55.895Z,13.80
2022-10-15T23:01:24.929Z,13.80
2022-10-15T23:03:54.129Z,13.80
2022-10-15T23:06:22.027Z,13.80
2022-10-15T23:08:48.664Z,13.70
2022-10-15T23:11:18.290Z,13.70
2022-10-15T23:13:46.306Z,13.70
2022-10-15T23:16:34.821Z,13.60
2022-10-15T23:19:04.254Z,13.70
2022-10-15T23:21:35.512Z,13.60
2022-10-15T23:24:03.037Z,13.60
2022-10-15T23:29:02.956Z,13.50
2022-10-15T23:31:35.351Z,13.50
2022-10-15T23:34:03.797Z,13.50
2022-10-15T23:36:31.178Z,13.40
2022-10-15T23:39:00.482Z,13.40
2022-10-15T23:41:28.338Z,13.30
2022-10-15T23:43:55.617Z,13.30
2022-10-15T23:46:23.163Z,13.30
2022-10-15T23:48:50.270Z,13.30
2022-10-15T23:51:25.481Z,13.30
2022-10-15T23:53:53.309Z,13.30
2022-10-15T23:56:20.532Z,13.30
2022-10-15T23:59:06.219Z,13.30
